createdAt,value
2023-01-09T00:03:29.551Z,1.50
2023-01-09T00:07:31.322Z,1.33
2023-01-09T00:11:33.241Z,1.15
2023-01-09T00:15:34.872Z,0.60
2023-01-09T00:19:36.490Z,0.40
2023-01-09T00:23:38.880Z,0.45
2023-01-09T00:27:40.564Z,0.40
2023-01-09T00:31:42.216Z,0.20
2023-01-09T00:35:43.809Z,0.20
2023-01-09T00:39:45.448Z,0.20
2023-01-09T00:43:51.466Z,0.20
2023-01-09T00:47:53.095Z,0.20
2023-01-09T00:51:55.647Z,0.40
2023-01-09T00:56:04.798Z,0.30
2023-01-09T01:00:08.403Z,0.10
2023-01-09T01:04:29.049Z,0.13
2023-01-09T01:08:30.713Z,0.10
2023-01-09T01:12:32.467Z,0.10
2023-01-09T01:16:34.161Z,0.10
2023-01-09T01:20:36.119Z,0.00
2023-01-09T01:24:37.763Z,0.20
2023-01-09T01:28:40.324Z,0.00
2023-01-09T01:32:42.503Z,0.00
2023-01-09T01:36:44.170Z,0.10
2023-01-09T01:40:53.308Z,0.10
2023-01-09T01:45:05.942Z,0.10
2023-01-09T01:49:12.878Z,0.20
2023-01-09T01:53:29.691Z,0.10
2023-01-09T01:57:32.641Z,0.22
2023-01-09T02:01:36.248Z,0.40
2023-01-09T02:05:39.424Z,0.13
2023-01-09T02:09:41.941Z,0.20
2023-01-09T02:13:44.006Z,0.37
2023-01-09T02:17:58.294Z,0.28
2023-01-09T02:22:30.804Z,0.37
2023-01-09T02:26:41.283Z,0.30
2023-01-09T02:30:56.916Z,0.30
2023-01-09T02:35:31.737Z,0.40
2023-01-09T02:39:46.979Z,0.50
2023-01-09T02:44:00.290Z,0.40
2023-01-09T02:48:01.962Z,0.40
2023-01-09T02:52:09.441Z,0.37
2023-01-09T02:56:31.382Z,0.30
2023-01-09T03:01:04.760Z,0.50
2023-01-09T03:05:28.598Z,0.60
2023-01-09T03:09:34.143Z,0.60
2023-01-09T03:13:45.752Z,0.70
2023-01-09T03:17:49.331Z,0.77
2023-01-09T03:21:51.906Z,0.88
2023-01-09T03:25:53.567Z,1.25
2023-01-09T03:29:56.499Z,1.50
2023-01-09T03:33:58.165Z,1.27
2023-01-09T03:37:59.893Z,1.12
2023-01-09T03:42:01.541Z,0.95
2023-01-09T03:46:04.421Z,0.98
2023-01-09T03:50:06.935Z,1.05
2023-01-09T03:54:08.677Z,1.08
2023-01-09T03:58:10.304Z,1.08
2023-01-09T04:02:12.162Z,1.02
2023-01-09T04:06:13.892Z,1.08
2023-01-09T04:10:15.882Z,0.90
2023-01-09T04:14:17.551Z,1.00
2023-01-09T04:18:19.178Z,1.12
2023-01-09T04:22:20.882Z,1.10
2023-01-09T04:26:22.532Z,0.98
2023-01-09T04:30:24.424Z,1.02
2023-01-09T04:34:26.542Z,1.17
2023-01-09T04:38:28.188Z,0.77
2023-01-09T04:42:29.848Z,0.90
2023-01-09T04:46:31.488Z,1.00
2023-01-09T04:50:33.130Z,1.10
2023-01-09T04:54:34.814Z,0.95
2023-01-09T04:58:36.456Z,1.00
2023-01-09T05:02:38.312Z,1.05
2023-01-09T05:06:40.090Z,1.37
2023-01-09T05:10:41.760Z,1.30
2023-01-09T05:14:43.452Z,1.00
2023-01-09T05:18:45.138Z,0.98
2023-01-09T05:22:46.780Z,0.57
2023-01-09T05:26:48.506Z,0.80
2023-01-09T05:30:50.220Z,0.90
2023-01-09T05:34:51.865Z,0.80
2023-01-09T05:38:53.623Z,0.77
2023-01-09T05:42:55.313Z,0.80
2023-01-09T05:46:56.976Z,0.60
2023-01-09T05:50:58.616Z,0.55
2023-01-09T05:55:00.288Z,0.93
2023-01-09T05:59:02.016Z,1.00
2023-01-09T06:03:03.741Z,5.37
2023-01-09T06:07:05.525Z,0.80
2023-01-09T06:11:07.209Z,0.93
2023-01-09T06:15:09.255Z,0.90
2023-01-09T06:19:10.952Z,0.90
2023-01-09T06:23:13.596Z,1.12
2023-01-09T06:27:15.569Z,0.90
2023-01-09T06:31:17.606Z,0.85
2023-01-09T06:35:20.619Z,0.75
2023-01-09T06:39:22.398Z,1.00
2023-01-09T06:43:24.127Z,0.93
2023-01-09T06:47:25.795Z,0.65
2023-01-09T06:51:27.511Z,0.95
2023-01-09T06:55:29.334Z,0.90
2023-01-09T06:59:30.977Z,0.80
2023-01-09T07:03:33.852Z,0.73
2023-01-09T07:07:35.556Z,0.75
2023-01-09T07:11:37.162Z,0.77
2023-01-09T07:15:39.110Z,0.95
2023-01-09T07:19:41.300Z,0.60
2023-01-09T07:23:42.949Z,0.82
2023-01-09T07:27:44.664Z,0.75
2023-01-09T07:31:46.873Z,1.10
2023-01-09T07:35:48.509Z,0.77
2023-01-09T07:39:50.295Z,0.80
2023-01-09T07:43:51.935Z,0.73
2023-01-09T07:47:53.650Z,0.90
2023-01-09T07:51:55.756Z,1.10
2023-01-09T07:55:57.559Z,0.90
2023-01-09T08:00:00.939Z,1.00
2023-01-09T08:04:02.571Z,0.77
2023-01-09T08:08:04.359Z,0.88
2023-01-09T08:12:06.082Z,0.90
2023-01-09T08:16:07.984Z,1.10
2023-01-09T08:20:12.035Z,0.85
2023-01-09T08:24:13.736Z,0.98
2023-01-09T08:28:15.495Z,1.12
2023-01-09T08:32:17.149Z,1.00
2023-01-09T08:36:18.919Z,1.00
2023-01-09T08:40:20.620Z,0.85
2023-01-09T08:44:40.954Z,0.90
2023-01-09T08:48:43.520Z,0.80
2023-01-09T08:52:45.206Z,1.10
2023-01-09T08:56:47.083Z,1.00
2023-01-09T09:00:48.755Z,1.77
2023-01-09T09:04:52.930Z,1.08
2023-01-09T09:08:54.615Z,1.05
2023-01-09T09:12:57.795Z,1.20
2023-01-09T09:16:59.474Z,1.00
2023-01-09T09:21:01.175Z,0.80
2023-01-09T09:25:04.643Z,0.70
2023-01-09T09:29:06.354Z,1.62
2023-01-09T09:33:08.447Z,0.93
2023-01-09T09:37:10.095Z,0.73
2023-01-09T09:41:49.528Z,0.80
2023-01-09T09:46:00.899Z,0.88
2023-01-09T09:50:27.903Z,1.20
2023-01-09T09:54:38.860Z,0.87
2023-01-09T09:58:43.514Z,0.47
2023-01-09T10:02:51.689Z,0.80
2023-01-09T10:06:59.319Z,1.00
2023-01-09T10:11:02.007Z,1.00
2023-01-09T10:15:18.501Z,0.95
2023-01-09T10:19:26.736Z,0.95
2023-01-09T10:23:28.340Z,0.95
2023-01-09T10:27:48.106Z,0.60
2023-01-09T10:32:12.601Z,0.75
2023-01-09T10:36:39.751Z,0.80
2023-01-09T10:40:50.954Z,1.00
2023-01-09T10:45:37.126Z,0.60
2023-01-09T10:49:39.550Z,0.80
2023-01-09T10:53:47.361Z,0.90
2023-01-09T10:58:01.234Z,0.80
2023-01-09T11:02:03.626Z,0.95
2023-01-09T11:06:22.488Z,0.98
2023-01-09T11:10:43.549Z,0.77
2023-01-09T11:14:45.240Z,0.68
2023-01-09T11:18:57.558Z,0.90
2023-01-09T11:22:59.470Z,0.95
2023-01-09T11:27:23.144Z,1.08
2023-01-09T11:31:25.832Z,0.70
2023-01-09T11:35:28.798Z,1.23
2023-01-09T11:39:33.476Z,0.93
2023-01-09T11:43:39.902Z,0.80
2023-01-09T11:47:41.797Z,0.87
2023-01-09T11:51:44.243Z,0.82
2023-01-09T11:55:56.073Z,0.85
2023-01-09T12:00:02.658Z,1.12
2023-01-09T12:04:23.467Z,0.82
2023-01-09T12:08:53.728Z,0.65
2023-01-09T12:13:23.026Z,1.10
2023-01-09T12:17:53.529Z,0.62
2023-01-09T12:22:40.778Z,0.73
2023-01-09T12:27:04.071Z,0.80
2023-01-09T12:31:08.747Z,1.08
2023-01-09T12:35:37.918Z,0.62
2023-01-09T12:39:47.595Z,0.60
2023-01-09T12:44:03.724Z,0.75
2023-01-09T12:48:24.956Z,0.90
2023-01-09T12:52:38.401Z,0.70
2023-01-09T12:56:45.383Z,0.77
2023-01-09T13:00:50.359Z,0.80
2023-01-09T13:05:02.735Z,1.12
2023-01-09T13:09:19.523Z,1.10
2023-01-09T13:13:31.060Z,0.90
2023-01-09T13:17:49.760Z,1.10
2023-01-09T13:21:52.831Z,1.00
2023-01-09T13:25:57.674Z,0.95
2023-01-09T13:30:25.428Z,0.90
2023-01-09T13:34:30.544Z,1.00
2023-01-09T13:38:34.699Z,1.12
2023-01-09T13:42:36.600Z,1.10
2023-01-09T13:46:44.929Z,1.10
2023-01-09T13:50:48.161Z,1.12
2023-01-09T13:55:16.061Z,1.27
2023-01-09T14:03:36.120Z,1.10
2023-01-09T14:07:43.014Z,1.30
2023-01-09T14:11:46.320Z,1.30
2023-01-09T14:15:49.730Z,1.00
2023-01-09T14:20:00.087Z,1.20
2023-01-09T14:24:07.576Z,1.23
2023-01-09T14:28:27.541Z,1.15
2023-01-09T14:32:34.245Z,1.90
2023-01-09T14:36:37.263Z,1.65
2023-01-09T14:40:44.535Z,1.30
2023-01-09T14:45:01.251Z,1.50
2023-01-09T14:49:31.488Z,1.77
2023-01-09T14:53:36.942Z,1.33
2023-01-09T14:57:38.895Z,1.60
2023-01-09T15:01:45.989Z,1.20
2023-01-09T15:10:02.517Z,1.48
2023-01-09T15:14:05.418Z,1.75
2023-01-09T15:18:10.591Z,2.08
2023-01-09T15:22:48.105Z,1.92
2023-01-09T15:26:58.607Z,1.85
2023-01-09T15:31:05.590Z,1.50
2023-01-09T15:35:14.081Z,1.62
2023-01-09T15:39:24.397Z,1.25
2023-01-09T15:43:29.688Z,1.92
2023-01-09T15:47:34.216Z,1.60
2023-01-09T15:51:36.236Z,1.80
2023-01-09T15:55:38.427Z,2.10
2023-01-09T15:59:41.055Z,2.08
2023-01-09T16:03:43.269Z,2.20
2023-01-09T16:07:49.984Z,1.92
2023-01-09T16:11:56.247Z,2.30
2023-01-09T16:16:00.133Z,2.40
2023-01-09T16:20:25.429Z,2.10
2023-01-09T16:24:34.430Z,2.25
2023-01-09T16:28:36.252Z,2.28
2023-01-09T16:32:51.210Z,2.30
2023-01-09T16:36:52.999Z,3.85
2023-01-09T16:41:31.723Z,2.85
2023-01-09T16:45:33.945Z,2.58
2023-01-09T16:49:35.694Z,2.35
2023-01-09T16:53:37.424Z,2.95
2023-01-09T16:57:41.326Z,2.90
2023-01-09T17:01:43.602Z,2.67
2023-01-09T17:05:45.968Z,2.70
2023-01-09T17:09:48.443Z,2.97
2023-01-09T17:13:50.773Z,2.97
2023-01-09T17:17:52.403Z,3.08
2023-01-09T17:21:54.036Z,3.08
2023-01-09T17:26:17.569Z,3.33
2023-01-09T17:30:20.209Z,4.78
2023-01-09T17:34:22.019Z,6.20
2023-01-09T17:38:23.762Z,6.10
2023-01-09T17:42:25.453Z,5.78
2023-01-09T17:46:36.091Z,4.50
2023-01-09T17:50:37.729Z,3.47
2023-01-09T17:54:39.801Z,2.80
2023-01-09T17:58:41.460Z,2.83
2023-01-09T18:02:43.158Z,3.15
2023-01-09T18:06:44.926Z,3.05
2023-01-09T18:10:48.367Z,3.72
2023-01-09T18:14:50.251Z,3.08
2023-01-09T18:18:53.719Z,3.72
2023-01-09T18:22:55.397Z,3.40
2023-01-09T18:26:57.060Z,3.30
2023-01-09T18:30:58.719Z,2.55
2023-01-09T18:35:00.650Z,4.57
2023-01-09T18:39:04.118Z,4.85
2023-01-09T18:43:07.677Z,4.90
2023-01-09T18:47:09.398Z,3.78
2023-01-09T18:51:11.051Z,3.28
2023-01-09T18:55:12.804Z,3.97
2023-01-09T18:59:14.451Z,4.30
2023-01-09T19:03:16.082Z,7.45
2023-01-09T19:07:17.948Z,4.97
2023-01-09T19:11:19.625Z,4.35
2023-01-09T19:15:21.266Z,3.97
2023-01-09T19:19:22.921Z,4.50
2023-01-09T19:23:24.743Z,5.53
2023-01-09T19:27:30.114Z,4.47
2023-01-09T19:31:32.217Z,3.80
2023-01-09T19:35:34.330Z,4.00
2023-01-09T19:39:37.286Z,4.55
2023-01-09T19:43:40.581Z,4.62
2023-01-09T19:47:42.539Z,4.75
2023-01-09T19:51:45.767Z,4.20
2023-01-09T19:55:47.552Z,4.60
2023-01-09T19:59:49.205Z,5.15
2023-01-09T20:03:51.907Z,5.43
2023-01-09T20:07:55.062Z,5.07
2023-01-09T20:11:56.866Z,5.30
2023-01-09T20:16:00.277Z,5.12
2023-01-09T20:20:02.044Z,5.55
2023-01-09T20:24:07.791Z,6.50
2023-01-09T20:28:09.401Z,6.78
2023-01-09T20:32:11.063Z,6.97
2023-01-09T20:36:13.225Z,7.00
2023-01-09T20:40:15.021Z,8.57
2023-01-09T20:44:16.775Z,6.80
2023-01-09T20:48:18.408Z,7.05
2023-01-09T20:52:22.431Z,7.60
2023-01-09T20:56:28.450Z,6.97
2023-01-09T21:00:32.083Z,6.75
2023-01-09T21:04:33.945Z,5.95
2023-01-09T21:08:35.980Z,6.72
2023-01-09T21:12:38.307Z,6.43
2023-01-09T21:16:40.111Z,5.75
2023-01-09T21:20:41.908Z,5.12
2023-01-09T21:24:43.580Z,4.85
2023-01-09T21:28:46.567Z,5.10
2023-01-09T21:32:48.216Z,4.95
2023-01-09T21:36:50.239Z,3.90
2023-01-09T21:40:53.348Z,3.42
2023-01-09T21:45:13.664Z,3.95
2023-01-09T21:49:15.322Z,3.83
2023-01-09T21:53:16.895Z,2.95
2023-01-09T21:57:18.704Z,3.30
2023-01-09T22:01:20.427Z,3.08
2023-01-09T22:05:24.506Z,3.00
2023-01-09T22:09:26.171Z,3.72
2023-01-09T22:13:28.403Z,2.80
2023-01-09T22:17:30.363Z,3.35
2023-01-09T22:21:32.132Z,3.30
2023-01-09T22:25:36.831Z,2.90
2023-01-09T22:29:38.484Z,4.20
2023-01-09T22:33:40.130Z,3.45
2023-01-09T22:37:41.855Z,3.80
2023-01-09T22:41:44.634Z,4.57
2023-01-09T22:45:46.300Z,4.43
2023-01-09T22:49:53.814Z,5.00
2023-01-09T22:53:56.173Z,4.95
2023-01-09T22:57:58.424Z,5.05
2023-01-09T23:02:00.199Z,5.62
2023-01-09T23:06:06.767Z,6.55
2023-01-09T23:10:09.064Z,6.25
2023-01-09T23:14:11.345Z,5.93
2023-01-09T23:18:13.039Z,6.25
2023-01-09T23:22:14.721Z,6.25
2023-01-09T23:26:16.361Z,5.97
2023-01-09T23:30:18.061Z,6.12
2023-01-09T23:34:26.341Z,6.32
2023-01-09T23:38:27.990Z,6.80
2023-01-09T23:42:48.261Z,6.35
2023-01-09T23:46:50.133Z,5.60
2023-01-09T23:50:53.875Z,6.30
2023-01-09T23:54:56.576Z,5.93
2023-01-09T23:58:58.329Z,5.32
